createdAt,value
2017-11-18T00:00:35.985Z,17.33
2017-11-18T00:03:03.387Z,18.23
2017-11-18T00:05:30.793Z,18.50
2017-11-18T00:07:58.187Z,17.27
2017-11-18T00:10:25.599Z,18.67
2017-11-18T00:12:52.999Z,19.20
2017-11-18T00:15:20.408Z,18.07
2017-11-18T00:17:47.799Z,19.83
2017-11-18T00:20:15.206Z,18.10
2017-11-18T00:22:42.624Z,18.90
2017-11-18T00:25:10.012Z,19.40
2017-11-18T00:27:37.444Z,17.65
2017-11-18T00:30:04.827Z,18.42
2017-11-18T00:32:32.233Z,18.02
2017-11-18T00:34:59.636Z,20.85
2017-11-18T00:37:27.047Z,18.45
2017-11-18T00:39:54.444Z,18.95
2017-11-18T00:42:21.834Z,18.77
2017-11-18T00:44:49.236Z,20.77
2017-11-18T00:47:16.624Z,18.63
2017-11-18T00:49:44.019Z,20.00
2017-11-18T00:52:11.412Z,18.87
2017-11-18T00:54:38.827Z,19.35
2017-11-18T00:57:06.224Z,19.70
2017-11-18T00:59:33.646Z,18.15
2017-11-18T01:02:01.043Z,19.37
2017-11-18T01:04:28.427Z,18.30
2017-11-18T01:06:55.881Z,19.17
2017-11-18T01:09:23.277Z,19.08
2017-11-18T01:11:50.667Z,19.77
2017-11-18T01:14:18.075Z,19.77
2017-11-18T01:16:45.493Z,18.30
2017-11-18T01:19:12.872Z,19.43
2017-11-18T01:21:40.280Z,20.63
2017-11-18T01:24:07.675Z,18.02
2017-11-18T01:26:35.067Z,18.60
2017-11-18T01:29:02.460Z,20.37
2017-11-18T01:31:29.847Z,20.57
2017-11-18T01:33:57.244Z,19.23
2017-11-18T01:36:24.627Z,18.90
2017-11-18T01:38:52.031Z,17.53
2017-11-18T01:41:19.426Z,18.63
2017-11-18T01:43:46.827Z,21.60
2017-11-18T01:46:14.227Z,18.98
2017-11-18T01:48:41.635Z,17.65
2017-11-18T01:51:09.024Z,18.10
2017-11-18T01:53:36.421Z,17.60
2017-11-18T01:56:03.821Z,18.00
2017-11-18T01:58:31.224Z,19.73
2017-11-18T02:00:58.624Z,20.03
2017-11-18T02:03:26.108Z,19.42
2017-11-18T02:05:53.485Z,17.25
2017-11-18T02:08:20.887Z,18.60
2017-11-18T02:10:48.336Z,17.98
2017-11-18T02:13:15.737Z,18.12
2017-11-18T02:15:43.129Z,17.95
2017-11-18T02:18:10.543Z,18.58
2017-11-18T02:20:37.976Z,18.85
2017-11-18T02:23:05.389Z,18.45
2017-11-18T02:25:32.824Z,19.30
2017-11-18T02:28:00.233Z,20.37
2017-11-18T02:30:27.674Z,19.12
2017-11-18T02:32:55.068Z,20.40
2017-11-18T02:35:22.468Z,17.80
2017-11-18T02:37:49.894Z,23.45
2017-11-18T02:40:17.295Z,20.73
2017-11-18T02:42:44.708Z,23.38
2017-11-18T02:45:12.129Z,17.00
2017-11-18T02:47:39.550Z,18.30
2017-11-18T02:50:06.945Z,19.70
2017-11-18T02:52:34.359Z,19.83
2017-11-18T02:55:01.756Z,17.47
2017-11-18T02:57:29.147Z,18.63
2017-11-18T02:59:56.567Z,17.90
2017-11-18T03:02:23.969Z,17.87
2017-11-18T03:04:51.374Z,18.60
2017-11-18T03:07:18.785Z,18.00
2017-11-18T03:09:46.179Z,17.55
2017-11-18T03:12:13.583Z,18.02
2017-11-18T03:14:40.980Z,19.57
2017-11-18T03:17:08.426Z,17.48
2017-11-18T03:19:35.846Z,18.87
2017-11-18T03:22:03.257Z,17.80
2017-11-18T03:24:30.664Z,21.87
2017-11-18T03:26:58.060Z,17.37
2017-11-18T03:29:25.485Z,17.30
2017-11-18T03:31:52.892Z,17.83
2017-11-18T03:34:20.288Z,17.73
2017-11-18T03:36:47.687Z,18.58
2017-11-18T03:39:15.101Z,17.55
2017-11-18T03:41:42.510Z,18.92
2017-11-18T03:44:09.941Z,18.23
2017-11-18T03:46:37.344Z,17.67
2017-11-18T03:49:04.736Z,17.90
2017-11-18T03:51:32.153Z,17.47
2017-11-18T03:53:59.543Z,19.92
2017-11-18T03:56:26.971Z,17.62
2017-11-18T03:58:54.372Z,18.08
2017-11-18T04:01:21.781Z,18.75
2017-11-18T04:03:49.260Z,17.20
2017-11-18T04:06:16.657Z,17.05
2017-11-18T04:08:44.087Z,17.10
2017-11-18T04:11:11.496Z,17.60
2017-11-18T04:13:38.923Z,18.02
2017-11-18T04:16:06.336Z,17.50
2017-11-18T04:18:33.731Z,18.12
2017-11-18T04:21:01.139Z,16.58
2017-11-18T04:23:28.544Z,17.23
2017-11-18T04:25:55.981Z,17.27
2017-11-18T04:28:23.377Z,17.30
2017-11-18T04:30:50.789Z,17.73
2017-11-18T04:33:18.181Z,18.25
2017-11-18T04:35:45.588Z,18.42
2017-11-18T04:38:13.011Z,18.37
2017-11-18T04:40:40.411Z,17.00
2017-11-18T04:43:07.817Z,17.17
2017-11-18T04:45:35.223Z,17.15
2017-11-18T04:48:02.642Z,24.73
2017-11-18T04:50:30.092Z,17.48
2017-11-18T04:52:57.492Z,23.08
2017-11-18T04:55:24.899Z,18.27
2017-11-18T04:57:52.304Z,17.35
2017-11-18T05:00:19.692Z,17.75
2017-11-18T05:02:47.110Z,17.77
2017-11-18T05:05:14.506Z,17.75
2017-11-18T05:07:41.908Z,17.65
2017-11-18T05:10:09.362Z,18.12
2017-11-18T05:12:36.785Z,19.35
2017-11-18T05:15:04.192Z,19.65
2017-11-18T05:17:31.612Z,17.55
2017-11-18T05:19:59.020Z,17.20
2017-11-18T05:22:26.424Z,17.62
2017-11-18T05:24:53.821Z,19.12
2017-11-18T05:27:21.220Z,17.50
2017-11-18T05:29:48.639Z,19.52
2017-11-18T05:32:16.041Z,18.75
2017-11-18T05:34:43.435Z,18.80
2017-11-18T05:37:10.855Z,17.77
2017-11-18T05:39:38.258Z,20.00
2017-11-18T05:42:05.675Z,18.37
2017-11-18T05:44:33.116Z,17.83
2017-11-18T05:47:00.549Z,20.05
2017-11-18T05:49:27.956Z,20.30
2017-11-18T05:51:55.348Z,22.77
2017-11-18T05:54:22.755Z,19.00
2017-11-18T05:56:50.205Z,22.75
2017-11-18T05:59:17.940Z,27.65
2017-11-18T06:01:45.343Z,25.33
2017-11-18T06:04:12.761Z,19.33
2017-11-18T06:06:40.169Z,23.25
2017-11-18T06:09:07.567Z,25.67
2017-11-18T06:11:34.989Z,18.95
2017-11-18T06:14:02.393Z,18.98
2017-11-18T06:16:29.822Z,17.50
2017-11-18T06:18:57.230Z,17.85
2017-11-18T06:21:24.652Z,17.92
2017-11-18T06:23:52.099Z,17.87
2017-11-18T06:26:19.513Z,17.37
2017-11-18T06:28:46.953Z,18.95
2017-11-18T06:31:14.375Z,18.75
2017-11-18T06:33:41.795Z,23.90
2017-11-18T06:36:09.195Z,19.23
2017-11-18T06:38:36.616Z,20.40
2017-11-18T06:41:04.063Z,18.52
2017-11-18T06:43:31.466Z,17.50
2017-11-18T06:45:58.915Z,18.05
2017-11-18T06:48:26.329Z,17.35
2017-11-18T06:50:53.744Z,17.80
2017-11-18T06:53:21.152Z,16.87
2017-11-18T06:55:48.583Z,17.20
2017-11-18T06:58:15.993Z,24.17
2017-11-18T07:00:43.407Z,19.48
2017-11-18T07:03:10.836Z,20.15
2017-11-18T07:05:38.272Z,18.83
2017-11-18T07:08:05.679Z,21.95
2017-11-18T07:10:33.080Z,16.62
2017-11-18T07:13:00.491Z,19.17
2017-11-18T07:15:27.914Z,18.15
2017-11-18T07:17:55.369Z,16.67
2017-11-18T07:20:22.808Z,16.05
2017-11-18T07:22:50.208Z,19.45
2017-11-18T07:25:17.692Z,23.33
2017-11-18T07:27:45.099Z,16.25
2017-11-18T07:30:12.795Z,21.35
2017-11-18T07:32:40.204Z,19.77
2017-11-18T07:35:07.629Z,16.65
2017-11-18T07:37:35.085Z,26.23
2017-11-18T07:40:02.507Z,17.53
2017-11-18T07:42:29.976Z,20.02
2017-11-18T07:44:57.372Z,17.75
2017-11-18T07:47:24.775Z,19.87
2017-11-18T07:49:52.185Z,17.27
2017-11-18T07:52:19.592Z,20.27
2017-11-18T07:54:47.028Z,20.20
2017-11-18T07:57:14.432Z,18.25
2017-11-18T07:59:41.842Z,19.90
2017-11-18T08:02:09.252Z,20.52
2017-11-18T08:04:36.696Z,22.30
2017-11-18T08:07:04.098Z,22.92
2017-11-18T08:09:31.515Z,17.70
2017-11-18T08:11:58.936Z,20.52
2017-11-18T08:14:26.321Z,18.47
2017-11-18T08:16:53.716Z,20.33
2017-11-18T08:19:21.111Z,15.83
2017-11-18T08:21:48.523Z,15.73
2017-11-18T08:24:15.949Z,16.12
2017-11-18T08:26:43.356Z,16.52
2017-11-18T08:29:10.789Z,17.90
2017-11-18T08:31:38.167Z,15.37
2017-11-18T08:34:05.571Z,14.67
2017-11-18T08:36:36.729Z,14.95
2017-11-18T08:39:05.049Z,20.77
2017-11-18T08:41:32.488Z,15.48
2017-11-18T08:44:00.122Z,14.68
2017-11-18T08:46:27.580Z,17.00
2017-11-18T08:48:55.010Z,13.40
2017-11-18T08:51:22.429Z,15.68
2017-11-18T08:53:49.849Z,17.37
2017-11-18T08:56:17.285Z,18.53
2017-11-18T08:58:44.768Z,16.23
2017-11-18T09:01:12.244Z,14.90
2017-11-18T09:03:39.627Z,18.20
2017-11-18T09:06:07.027Z,21.65
2017-11-18T09:08:34.431Z,15.90
2017-11-18T09:11:01.840Z,18.00
2017-11-18T09:13:29.248Z,17.73
2017-11-18T09:15:56.655Z,23.02
2017-11-18T09:18:24.057Z,14.65
2017-11-18T09:20:51.495Z,17.95
2017-11-18T09:23:18.888Z,15.13
2017-11-18T09:25:46.316Z,18.80
2017-11-18T09:28:13.705Z,15.93
2017-11-18T09:30:41.160Z,17.58
2017-11-18T09:33:08.603Z,16.20
2017-11-18T09:35:35.998Z,18.27
2017-11-18T09:38:03.440Z,14.47
2017-11-18T09:40:30.841Z,14.63
2017-11-18T09:42:58.285Z,16.00
2017-11-18T09:45:25.731Z,14.80
2017-11-18T09:47:53.131Z,26.33
2017-11-18T09:50:20.553Z,18.35
2017-11-18T09:52:47.964Z,18.42
2017-11-18T09:55:15.411Z,18.50
2017-11-18T09:57:42.832Z,18.75
2017-11-18T10:00:11.069Z,16.30
2017-11-18T10:02:38.479Z,21.60
2017-11-18T10:05:05.873Z,19.03
2017-11-18T10:07:35.173Z,15.77
2017-11-18T10:10:02.647Z,19.00
2017-11-18T10:12:30.063Z,16.83
2017-11-18T10:14:57.493Z,18.60
2017-11-18T10:17:24.909Z,17.53
2017-11-18T10:19:52.580Z,17.60
2017-11-18T10:22:20.041Z,20.50
2017-11-18T10:24:47.463Z,19.57
2017-11-18T10:27:14.915Z,22.80
2017-11-18T10:29:42.314Z,19.77
2017-11-18T10:32:09.711Z,20.30
2017-11-18T10:34:40.190Z,17.47
2017-11-18T10:37:07.591Z,19.58
2017-11-18T10:39:35.024Z,20.50
2017-11-18T10:42:02.419Z,20.50
2017-11-18T10:44:29.828Z,23.33
2017-11-18T10:46:57.261Z,23.77
2017-11-18T10:49:25.651Z,20.90
2017-11-18T10:51:53.065Z,21.53
2017-11-18T10:54:20.492Z,22.50
2017-11-18T10:56:47.890Z,20.47
2017-11-18T10:59:15.273Z,16.13
2017-11-18T11:01:42.668Z,31.43
2017-11-18T11:04:10.074Z,19.30
2017-11-18T11:06:37.471Z,26.63
2017-11-18T11:09:04.898Z,13.83
2017-11-18T11:11:32.331Z,20.80
2017-11-18T11:13:59.727Z,18.00
2017-11-18T11:16:27.128Z,18.33
2017-11-18T11:18:54.584Z,20.43
2017-11-18T11:21:21.984Z,13.80
2017-11-18T11:23:49.369Z,16.77
2017-11-18T11:26:16.760Z,20.20
2017-11-18T11:28:44.155Z,18.30
2017-11-18T11:31:11.544Z,16.50
2017-11-18T11:33:38.952Z,15.97
2017-11-18T11:36:06.343Z,18.50
2017-11-18T11:38:33.736Z,23.70
2017-11-18T11:41:01.135Z,17.23
2017-11-18T11:43:28.522Z,20.00
2017-11-18T11:45:55.920Z,15.30
2017-11-18T11:48:23.312Z,20.30
2017-11-18T11:50:50.711Z,15.53
2017-11-18T11:53:18.146Z,16.70
2017-11-18T11:55:45.541Z,17.80
2017-11-18T11:58:12.927Z,16.80
2017-11-18T12:00:40.331Z,14.87
2017-11-18T12:03:07.711Z,17.00
2017-11-18T12:05:35.116Z,16.37
2017-11-18T12:08:02.512Z,16.97
2017-11-18T12:10:29.905Z,18.10
2017-11-18T12:12:57.303Z,21.80
2017-11-18T12:15:24.700Z,16.33
2017-11-18T12:17:52.103Z,14.87
2017-11-18T12:20:19.518Z,17.57
2017-11-18T12:22:46.903Z,22.10
2017-11-18T12:25:14.300Z,18.20
2017-11-18T12:27:41.700Z,16.53
2017-11-18T12:30:09.111Z,19.40
2017-11-18T12:32:36.503Z,17.27
2017-11-18T12:35:03.896Z,16.93
2017-11-18T12:37:31.291Z,17.10
2017-11-18T12:39:58.686Z,16.57
2017-11-18T12:42:26.083Z,15.67
2017-11-18T12:44:53.505Z,16.73
2017-11-18T12:47:20.899Z,17.37
2017-11-18T12:49:48.296Z,25.33
2017-11-18T12:52:15.684Z,25.60
2017-11-18T12:54:44.047Z,15.57
2017-11-18T12:57:11.459Z,14.60
2017-11-18T12:59:38.855Z,19.87
2017-11-18T13:02:06.261Z,20.20
2017-11-18T13:04:33.639Z,15.83
2017-11-18T13:07:01.040Z,19.90
2017-11-18T13:09:28.459Z,17.37
2017-11-18T13:11:55.861Z,15.20
2017-11-18T13:14:23.628Z,19.20
2017-11-18T13:16:51.056Z,15.67
2017-11-18T13:19:18.436Z,13.97
2017-11-18T13:21:45.832Z,14.83
2017-11-18T13:24:13.241Z,14.97
2017-11-18T13:26:40.627Z,13.37
2017-11-18T13:29:08.029Z,13.13
2017-11-18T13:31:35.491Z,13.97
2017-11-18T13:34:02.901Z,15.70
2017-11-18T13:36:30.288Z,13.83
2017-11-18T13:38:58.343Z,11.80
2017-11-18T13:41:25.744Z,15.87
2017-11-18T13:43:54.104Z,12.50
2017-11-18T13:46:21.500Z,16.43
2017-11-18T13:48:48.979Z,12.23
2017-11-18T13:51:16.376Z,14.00
2017-11-18T13:53:43.763Z,12.93
2017-11-18T13:56:11.241Z,11.53
2017-11-18T13:58:39.658Z,15.80
2017-11-18T14:01:07.056Z,13.37
2017-11-18T14:03:34.452Z,15.37
2017-11-18T14:06:01.972Z,13.77
2017-11-18T14:08:29.388Z,12.37
2017-11-18T14:10:56.855Z,14.97
2017-11-18T14:13:24.239Z,12.93
2017-11-18T14:15:51.723Z,18.47
2017-11-18T14:18:19.108Z,16.70
2017-11-18T14:20:46.512Z,13.63
2017-11-18T14:23:13.927Z,11.80
2017-11-18T14:25:41.336Z,14.43
2017-11-18T14:28:09.570Z,11.40
2017-11-18T14:30:36.961Z,13.73
2017-11-18T14:33:04.769Z,17.27
2017-11-18T14:35:32.172Z,18.17
2017-11-18T14:37:59.564Z,18.70
2017-11-18T14:40:26.959Z,17.90
2017-11-18T14:42:55.144Z,16.90
2017-11-18T14:45:22.545Z,13.20
2017-11-18T14:47:50.856Z,17.60
2017-11-18T14:50:18.297Z,12.70
2017-11-18T14:52:45.693Z,17.43
2017-11-18T14:55:13.087Z,15.23
2017-11-18T14:57:47.026Z,14.00
2017-11-18T15:00:14.907Z,17.77
2017-11-18T15:02:43.484Z,13.97
2017-11-18T15:05:10.862Z,15.73
2017-11-18T15:07:38.272Z,17.37
2017-11-18T15:10:05.656Z,19.97
2017-11-18T15:12:33.811Z,17.43
2017-11-18T15:15:06.877Z,20.57
2017-11-18T15:17:40.928Z,18.33
2017-11-18T15:20:13.896Z,14.53
2017-11-18T15:22:44.599Z,15.23
2017-11-18T15:25:17.500Z,14.00
2017-11-18T15:27:50.584Z,17.70
2017-11-18T15:30:24.402Z,13.03
2017-11-18T15:33:05.566Z,15.70
2017-11-18T15:35:38.350Z,15.50
2017-11-18T15:41:12.667Z,14.63
2017-11-18T15:47:04.680Z,15.33
2017-11-18T15:49:37.802Z,14.47
2017-11-18T15:52:05.660Z,13.63
2017-11-18T15:57:37.935Z,14.60
2017-11-18T16:00:06.499Z,16.20
2017-11-18T16:02:35.417Z,15.63
2017-11-18T16:05:12.724Z,11.77
2017-11-18T16:07:43.520Z,11.97
2017-11-18T16:10:19.078Z,14.93
2017-11-18T16:12:46.485Z,12.67
2017-11-18T16:15:13.907Z,12.50
2017-11-18T16:17:41.304Z,14.07
2017-11-18T16:20:08.687Z,11.00
2017-11-18T16:22:36.088Z,11.47
2017-11-18T16:25:03.478Z,15.60
2017-11-18T16:27:30.867Z,12.80
2017-11-18T16:29:58.256Z,13.50
2017-11-18T16:32:25.661Z,15.00
2017-11-18T16:34:53.053Z,12.10
2017-11-18T16:37:21.634Z,12.73
2017-11-18T16:39:50.248Z,11.83
2017-11-18T16:42:17.717Z,14.23
2017-11-18T16:44:54.924Z,12.27
2017-11-18T16:47:22.344Z,10.50
2017-11-18T16:49:50.271Z,10.60
2017-11-18T16:52:23.124Z,11.60
2017-11-18T16:54:50.520Z,11.97
2017-11-18T16:57:17.950Z,14.70
2017-11-18T16:59:45.352Z,10.97
2017-11-18T17:02:13.203Z,11.10
2017-11-18T17:04:41.063Z,13.43
2017-11-18T17:07:08.468Z,13.27
2017-11-18T17:09:35.879Z,12.23
2017-11-18T17:12:03.271Z,10.67
2017-11-18T17:14:30.664Z,11.27
2017-11-18T17:16:58.061Z,11.63
2017-11-18T17:19:25.452Z,14.23
2017-11-18T17:21:52.840Z,11.80
2017-11-18T17:24:20.239Z,14.67
2017-11-18T17:26:47.631Z,17.47
2017-11-18T17:29:15.040Z,12.50
2017-11-18T17:31:42.429Z,13.10
2017-11-18T17:34:09.816Z,15.10
2017-11-18T17:36:37.211Z,18.90
2017-11-18T17:39:04.611Z,14.73
2017-11-18T17:41:32.038Z,12.80
2017-11-18T17:43:59.439Z,12.63
2017-11-18T17:46:26.844Z,15.23
2017-11-18T17:48:54.239Z,12.23
2017-11-18T17:51:21.623Z,12.80
2017-11-18T17:53:49.032Z,17.43
2017-11-18T17:56:16.416Z,19.90
2017-11-18T17:58:43.812Z,14.20
2017-11-18T18:01:11.204Z,18.27
2017-11-18T18:03:38.604Z,17.13
2017-11-18T18:06:05.997Z,15.10
2017-11-18T18:08:33.392Z,13.80
2017-11-18T18:11:00.788Z,13.60
2017-11-18T18:13:28.179Z,16.10
2017-11-18T18:15:55.571Z,14.03
2017-11-18T18:18:22.968Z,31.37
2017-11-18T18:20:50.375Z,14.23
2017-11-18T18:23:17.776Z,18.50
2017-11-18T18:25:45.175Z,17.57
2017-11-18T18:28:12.584Z,18.43
2017-11-18T18:30:39.977Z,17.37
2017-11-18T18:33:07.379Z,16.23
2017-11-18T18:35:34.759Z,15.10
2017-11-18T18:38:02.164Z,17.07
2017-11-18T18:40:29.577Z,15.03
2017-11-18T18:42:56.967Z,14.60
2017-11-18T18:45:24.368Z,14.53
2017-11-18T18:47:51.780Z,15.17
2017-11-18T18:50:19.167Z,16.73
2017-11-18T18:52:46.559Z,16.47
2017-11-18T18:55:13.983Z,19.67
2017-11-18T18:57:41.363Z,16.77
2017-11-18T19:00:08.765Z,15.27
2017-11-18T19:02:36.164Z,20.00
2017-11-18T19:05:03.556Z,17.70
2017-11-18T19:07:30.948Z,15.90
2017-11-18T19:09:58.344Z,13.80
2017-11-18T19:12:25.739Z,13.30
2017-11-18T19:14:53.127Z,15.60
2017-11-18T19:17:20.537Z,12.60
2017-11-18T19:19:47.928Z,13.47
2017-11-18T19:22:15.320Z,15.17
2017-11-18T19:24:42.748Z,17.40
2017-11-18T19:27:10.145Z,19.67
2017-11-18T19:29:37.838Z,19.77
2017-11-18T19:32:05.240Z,22.10
2017-11-18T19:34:32.643Z,22.03
2017-11-18T19:37:00.039Z,23.97
2017-11-18T19:39:27.447Z,24.17
2017-11-18T19:41:54.843Z,20.70
2017-11-18T19:44:22.251Z,22.63
2017-11-18T19:46:49.652Z,21.73
2017-11-18T19:49:17.055Z,21.80
2017-11-18T19:51:44.454Z,25.33
2017-11-18T19:54:11.847Z,23.37
2017-11-18T19:56:40.203Z,22.67
2017-11-18T19:59:07.611Z,23.83
2017-11-18T20:01:35.025Z,23.23
2017-11-18T20:04:02.423Z,24.20
2017-11-18T20:06:29.848Z,24.00
2017-11-18T20:08:57.267Z,23.83
2017-11-18T20:11:37.952Z,25.80
2017-11-18T20:14:05.400Z,24.63
2017-11-18T20:16:32.772Z,25.73
2017-11-18T20:19:00.163Z,24.73
2017-11-18T20:21:27.560Z,25.40
2017-11-18T20:23:55.012Z,25.40
2017-11-18T20:26:22.396Z,24.33
2017-11-18T20:28:49.791Z,23.97
2017-11-18T20:31:17.247Z,24.63
2017-11-18T20:33:44.633Z,26.03
2017-11-18T20:36:12.028Z,24.73
2017-11-18T20:38:39.491Z,24.10
2017-11-18T20:41:06.921Z,24.50
2017-11-18T20:43:40.854Z,24.80
2017-11-18T20:46:08.272Z,26.50
2017-11-18T20:48:36.548Z,26.53
2017-11-18T20:51:03.939Z,24.87
2017-11-18T20:53:32.368Z,24.80
2017-11-18T20:55:59.876Z,25.53
2017-11-18T20:58:27.276Z,24.97
2017-11-18T21:00:54.667Z,22.97
2017-11-18T21:03:22.059Z,25.03
2017-11-18T21:05:49.466Z,25.30
2017-11-18T21:08:16.871Z,26.30
2017-11-18T21:10:44.263Z,29.67
2017-11-18T21:13:11.651Z,27.40
2017-11-18T21:15:39.053Z,28.30
2017-11-18T21:18:06.446Z,25.20
2017-11-18T21:20:33.841Z,28.43
2017-11-18T21:23:01.228Z,28.23
2017-11-18T21:25:28.628Z,29.17
2017-11-18T21:27:56.936Z,28.57
2017-11-18T21:30:24.378Z,26.83
2017-11-18T21:32:51.760Z,25.07
2017-11-18T21:35:19.195Z,23.40
2017-11-18T21:37:47.292Z,23.17
2017-11-18T21:40:14.684Z,21.83
2017-11-18T21:42:42.075Z,23.47
2017-11-18T21:45:09.471Z,22.37
2017-11-18T21:47:36.879Z,22.13
2017-11-18T21:50:04.264Z,20.63
2017-11-18T21:52:31.658Z,21.80
2017-11-18T21:54:59.047Z,20.53
2017-11-18T21:57:26.444Z,21.50
2017-11-18T21:59:53.836Z,21.27
2017-11-18T22:02:21.232Z,20.30
2017-11-18T22:04:48.627Z,21.80
2017-11-18T22:07:16.019Z,21.00
2017-11-18T22:09:43.408Z,20.00
2017-11-18T22:12:10.800Z,19.33
2017-11-18T22:14:38.192Z,20.60
2017-11-18T22:17:05.592Z,20.70
2017-11-18T22:19:32.984Z,20.13
2017-11-18T22:22:00.401Z,20.53
2017-11-18T22:24:27.784Z,19.33
2017-11-18T22:26:55.176Z,20.37
2017-11-18T22:29:22.573Z,19.97
2017-11-18T22:31:49.956Z,19.40
2017-11-18T22:34:17.356Z,19.67
2017-11-18T22:36:44.747Z,20.77
2017-11-18T22:39:12.149Z,19.33
2017-11-18T22:41:39.544Z,18.30
2017-11-18T22:44:06.935Z,18.53
2017-11-18T22:46:34.329Z,20.50
2017-11-18T22:49:01.717Z,20.80
2017-11-18T22:51:29.115Z,21.03
2017-11-18T22:53:56.504Z,21.37
2017-11-18T22:56:23.909Z,23.20
2017-11-18T22:58:51.308Z,22.67
2017-11-18T23:01:18.727Z,21.83
2017-11-18T23:03:46.123Z,23.27
2017-11-18T23:06:13.515Z,21.70
2017-11-18T23:08:40.912Z,24.83
2017-11-18T23:11:08.305Z,23.40
2017-11-18T23:13:35.703Z,23.57
2017-11-18T23:16:03.095Z,23.00
2017-11-18T23:18:30.479Z,21.13
2017-11-18T23:20:57.876Z,22.10
2017-11-18T23:23:25.267Z,21.67
2017-11-18T23:25:52.663Z,22.93
2017-11-18T23:28:20.054Z,22.80
2017-11-18T23:30:47.477Z,24.47
2017-11-18T23:33:14.834Z,23.30
2017-11-18T23:35:42.249Z,23.27
2017-11-18T23:38:09.643Z,24.00
2017-11-18T23:40:37.036Z,22.90
2017-11-18T23:43:04.440Z,24.03
2017-11-18T23:45:31.832Z,22.70
2017-11-18T23:47:59.233Z,24.70
2017-11-18T23:50:26.623Z,24.27
2017-11-18T23:52:54.015Z,24.97
2017-11-18T23:55:21.408Z,23.93
2017-11-18T23:57:48.806Z,24.27
